createdAt,value
2022-11-17T00:00:19.359Z,40.22
2022-11-17T00:02:47.296Z,40.72
2022-11-17T00:05:14.469Z,39.45
2022-11-17T00:07:44.623Z,38.72
2022-11-17T00:10:12.836Z,34.70
2022-11-17T00:12:58.740Z,35.78
2022-11-17T00:15:26.259Z,30.45
2022-11-17T00:18:16.565Z,29.02
2022-11-17T00:21:02.322Z,30.38
2022-11-17T00:23:48.207Z,31.83
2022-11-17T00:26:27.492Z,27.23
2022-11-17T00:29:00.784Z,30.10
2022-11-17T00:31:52.828Z,23.60
2022-11-17T00:34:22.629Z,25.98
2022-11-17T00:36:52.499Z,20.73
2022-11-17T00:39:23.962Z,25.85
2022-11-17T00:41:51.045Z,28.20
2022-11-17T00:44:18.277Z,29.92
2022-11-17T00:46:45.349Z,28.02
2022-11-17T00:49:13.915Z,23.10
2022-11-17T00:51:41.751Z,21.33
2022-11-17T00:54:12.827Z,23.42
2022-11-17T00:56:40.201Z,24.17
2022-11-17T00:59:07.287Z,23.88
2022-11-17T01:01:34.718Z,21.55
2022-11-17T01:04:03.145Z,19.65
2022-11-17T01:06:41.473Z,21.80
2022-11-17T01:09:23.445Z,24.98
2022-11-17T01:11:52.586Z,23.85
2022-11-17T01:14:23.602Z,21.67
2022-11-17T01:16:52.029Z,19.52
2022-11-17T01:19:20.696Z,24.23
2022-11-17T01:21:48.211Z,21.75
2022-11-17T01:24:16.935Z,22.48
2022-11-17T01:26:45.282Z,25.92
2022-11-17T01:29:16.432Z,26.85
2022-11-17T01:31:44.434Z,27.67
2022-11-17T01:34:12.256Z,32.70
2022-11-17T01:37:01.202Z,42.55
2022-11-17T01:39:30.531Z,33.53
2022-11-17T01:42:03.323Z,40.22
2022-11-17T01:44:55.340Z,26.90
2022-11-17T01:47:43.605Z,20.73
2022-11-17T01:50:30.719Z,23.63
2022-11-17T01:53:01.904Z,30.08
2022-11-17T01:55:42.307Z,20.75
2022-11-17T01:58:14.755Z,27.73
2022-11-17T02:00:41.961Z,24.08
2022-11-17T02:03:09.417Z,32.65
2022-11-17T02:05:58.301Z,22.05
2022-11-17T02:08:29.844Z,29.67
2022-11-17T02:10:57.914Z,22.52
2022-11-17T02:13:25.849Z,25.65
2022-11-17T02:15:52.887Z,22.40
2022-11-17T02:18:20.167Z,24.35
2022-11-17T02:21:25.440Z,22.38
2022-11-17T02:24:32.855Z,18.73
2022-11-17T02:27:18.639Z,27.60
2022-11-17T02:30:24.049Z,24.17
2022-11-17T02:33:16.059Z,21.88
2022-11-17T02:36:19.487Z,26.33
2022-11-17T02:38:55.370Z,19.95
2022-11-17T02:42:16.905Z,32.63
2022-11-17T02:44:55.169Z,18.85
2022-11-17T02:47:32.057Z,13.88
2022-11-17T02:50:05.694Z,21.58
2022-11-17T02:52:33.402Z,15.77
2022-11-17T02:55:03.387Z,27.13
2022-11-17T02:57:33.295Z,13.65
2022-11-17T03:00:08.710Z,18.10
2022-11-17T03:03:02.884Z,15.95
2022-11-17T03:05:53.113Z,15.93
2022-11-17T03:08:41.975Z,22.20
2022-11-17T03:11:10.431Z,14.57
2022-11-17T03:13:40.223Z,14.90
2022-11-17T03:16:30.307Z,10.18
2022-11-17T03:19:26.047Z,13.88
2022-11-17T03:22:07.939Z,14.68
2022-11-17T03:24:51.598Z,20.48
2022-11-17T03:27:37.410Z,16.75
2022-11-17T03:30:09.022Z,16.73
2022-11-17T03:32:43.340Z,17.85
2022-11-17T03:35:19.850Z,14.90
2022-11-17T03:37:53.154Z,13.00
2022-11-17T03:40:28.498Z,14.45
2022-11-17T03:43:00.400Z,9.27
2022-11-17T03:45:39.989Z,8.82
2022-11-17T03:48:49.215Z,14.40
2022-11-17T03:51:22.769Z,12.90
2022-11-17T03:53:50.536Z,12.73
2022-11-17T03:56:57.053Z,13.55
2022-11-17T04:00:06.798Z,19.38
2022-11-17T04:02:42.487Z,13.65
2022-11-17T04:05:11.658Z,16.60
2022-11-17T04:07:45.241Z,12.43
2022-11-17T04:10:18.520Z,11.30
2022-11-17T04:13:06.467Z,9.63
2022-11-17T04:15:52.309Z,13.07
2022-11-17T04:18:20.992Z,8.57
2022-11-17T04:20:56.448Z,10.27
2022-11-17T04:23:25.190Z,15.05
2022-11-17T04:26:14.252Z,11.55
2022-11-17T04:28:46.782Z,12.45
2022-11-17T04:31:23.815Z,13.02
2022-11-17T04:33:57.062Z,9.93
2022-11-17T04:36:30.879Z,20.90
2022-11-17T04:38:59.670Z,18.60
2022-11-17T04:41:47.419Z,23.70
2022-11-17T04:44:16.959Z,19.58
2022-11-17T04:46:48.165Z,23.25
2022-11-17T04:49:17.867Z,12.15
2022-11-17T04:51:45.803Z,15.20
2022-11-17T04:54:17.403Z,9.63
2022-11-17T04:56:45.168Z,13.52
2022-11-17T04:59:12.358Z,9.90
2022-11-17T05:01:39.854Z,9.73
2022-11-17T05:04:10.018Z,14.85
2022-11-17T05:06:44.516Z,11.23
2022-11-17T05:09:15.304Z,10.95
2022-11-17T05:12:01.847Z,11.88
2022-11-17T05:14:30.014Z,11.88
2022-11-17T05:17:10.103Z,7.80
2022-11-17T05:19:46.495Z,15.90
2022-11-17T05:22:40.023Z,10.10
2022-11-17T05:25:07.860Z,9.15
2022-11-17T05:27:35.803Z,10.90
2022-11-17T05:30:06.374Z,12.80
2022-11-17T05:32:33.635Z,14.25
2022-11-17T05:35:00.712Z,12.98
2022-11-17T05:37:27.837Z,20.52
2022-11-17T05:39:54.989Z,10.00
2022-11-17T05:42:22.193Z,9.40
2022-11-17T05:44:49.494Z,9.82
2022-11-17T05:47:16.580Z,12.45
2022-11-17T05:49:43.861Z,11.93
2022-11-17T05:52:10.979Z,11.85
2022-11-17T05:54:38.036Z,11.00
2022-11-17T05:57:11.565Z,11.93
2022-11-17T05:59:51.008Z,14.27
2022-11-17T06:02:28.380Z,10.77
2022-11-17T06:04:55.560Z,11.40
2022-11-17T06:07:23.496Z,8.88
2022-11-17T06:09:51.591Z,10.48
2022-11-17T06:12:18.841Z,59.22
2022-11-17T06:14:45.948Z,46.13
2022-11-17T06:17:30.736Z,23.65
2022-11-17T06:20:22.108Z,39.30
2022-11-17T06:22:50.264Z,23.70
2022-11-17T06:25:19.203Z,27.98
2022-11-17T06:27:48.167Z,41.03
2022-11-17T06:30:15.331Z,33.63
2022-11-17T06:32:43.483Z,29.73
2022-11-17T06:35:13.914Z,24.42
2022-11-17T06:37:41.291Z,21.30
2022-11-17T06:40:12.760Z,25.25
2022-11-17T06:42:58.665Z,25.42
2022-11-17T06:45:26.147Z,22.42
2022-11-17T06:47:54.365Z,22.45
2022-11-17T06:50:21.556Z,20.63
2022-11-17T06:52:48.696Z,19.40
2022-11-17T06:55:16.116Z,21.50
2022-11-17T06:57:44.304Z,18.38
2022-11-17T07:00:14.570Z,18.23
2022-11-17T07:02:41.741Z,14.32
2022-11-17T07:05:09.510Z,17.08
2022-11-17T07:07:36.719Z,16.92
2022-11-17T07:10:04.144Z,19.13
2022-11-17T07:12:32.778Z,17.60
2022-11-17T07:15:00.032Z,21.15
2022-11-17T07:17:28.482Z,22.50
2022-11-17T07:19:56.215Z,23.33
2022-11-17T07:22:23.585Z,19.60
2022-11-17T07:24:51.007Z,18.83
2022-11-17T07:27:18.148Z,24.98
2022-11-17T07:29:45.352Z,25.77
2022-11-17T07:32:13.558Z,25.98
2022-11-17T07:34:41.986Z,28.98
2022-11-17T07:37:09.467Z,20.70
2022-11-17T07:39:36.609Z,26.80
2022-11-17T07:42:03.778Z,28.38
2022-11-17T07:44:31.017Z,25.83
2022-11-17T07:46:58.295Z,24.45
2022-11-17T07:49:27.486Z,33.78
2022-11-17T07:54:21.596Z,38.90
2022-11-17T07:56:48.840Z,24.90
2022-11-17T07:59:21.010Z,41.47
2022-11-17T08:01:48.679Z,31.27
2022-11-17T08:04:15.911Z,38.17
2022-11-17T08:06:43.103Z,34.33
2022-11-17T08:09:12.850Z,29.98
2022-11-17T08:11:39.978Z,33.83
2022-11-17T08:14:07.263Z,32.40
2022-11-17T08:16:34.458Z,30.92
2022-11-17T08:19:03.781Z,34.13
2022-11-17T08:23:59.597Z,32.08
2022-11-17T08:26:26.829Z,35.78
2022-11-17T08:28:58.469Z,33.15
2022-11-17T08:31:26.157Z,31.92
2022-11-17T08:33:53.681Z,32.72
2022-11-17T08:36:20.993Z,34.35
2022-11-17T08:38:48.126Z,35.75
2022-11-17T08:41:15.267Z,34.25
2022-11-17T08:43:42.554Z,34.20
2022-11-17T08:46:13.668Z,38.03
2022-11-17T08:48:40.927Z,31.38
2022-11-17T08:51:09.117Z,36.72
2022-11-17T08:53:36.490Z,41.00
2022-11-17T08:56:10.019Z,42.72
2022-11-17T08:58:44.471Z,47.97
2022-11-17T09:01:15.276Z,44.03
2022-11-17T09:03:44.942Z,43.08
2022-11-17T09:06:13.654Z,42.97
2022-11-17T09:08:56.102Z,43.05
2022-11-17T09:11:23.813Z,42.60
2022-11-17T09:13:51.014Z,43.15
2022-11-17T09:16:18.433Z,34.25
2022-11-17T09:18:45.627Z,27.15
2022-11-17T09:21:15.363Z,23.52
2022-11-17T09:23:42.811Z,33.13
2022-11-17T09:26:14.159Z,25.52
2022-11-17T09:28:43.455Z,25.92
2022-11-17T09:33:44.052Z,24.50
2022-11-17T09:36:13.744Z,23.15
2022-11-17T09:38:41.648Z,20.13
2022-11-17T09:41:31.944Z,28.13
2022-11-17T09:44:30.748Z,26.88
2022-11-17T09:47:33.294Z,21.33
2022-11-17T09:50:04.112Z,16.83
2022-11-17T09:52:49.067Z,18.75
2022-11-17T09:55:34.089Z,15.45
2022-11-17T09:58:26.320Z,17.70
2022-11-17T10:00:53.821Z,24.88
2022-11-17T10:03:42.033Z,32.38
2022-11-17T10:06:26.852Z,31.13
2022-11-17T10:09:14.517Z,39.83
2022-11-17T10:11:43.451Z,26.85
2022-11-17T10:14:21.370Z,28.88
2022-11-17T10:16:58.305Z,27.23
2022-11-17T10:19:30.851Z,33.10
2022-11-17T10:22:04.723Z,28.13
2022-11-17T10:24:46.983Z,34.00
2022-11-17T10:27:17.096Z,33.72
2022-11-17T10:30:06.411Z,47.05
2022-11-17T10:32:48.373Z,43.90
2022-11-17T10:35:24.127Z,38.42
2022-11-17T10:37:54.856Z,26.20
2022-11-17T10:40:31.477Z,24.33
2022-11-17T10:43:36.118Z,18.33
2022-11-17T10:46:13.100Z,17.48
2022-11-17T10:49:02.469Z,12.98
2022-11-17T10:51:32.179Z,13.23
2022-11-17T10:54:25.781Z,14.68
2022-11-17T10:56:59.811Z,11.63
2022-11-17T10:59:40.706Z,12.95
2022-11-17T11:02:37.650Z,12.43
2022-11-17T11:05:19.278Z,11.80
2022-11-17T11:07:46.423Z,14.52
2022-11-17T11:10:27.022Z,10.00
2022-11-17T11:13:05.760Z,12.82
2022-11-17T11:15:35.803Z,11.45
2022-11-17T11:18:16.526Z,11.07
2022-11-17T11:21:10.694Z,12.45
2022-11-17T11:24:04.705Z,14.63
2022-11-17T11:27:25.711Z,12.55
2022-11-17T11:30:10.498Z,13.93
2022-11-17T11:32:46.382Z,9.98
2022-11-17T11:35:59.569Z,6.80
2022-11-17T11:38:26.618Z,8.05
2022-11-17T11:42:07.644Z,4.85
2022-11-17T11:45:00.553Z,2.67
2022-11-17T11:47:43.492Z,4.35
2022-11-17T11:50:30.917Z,5.18
2022-11-17T11:53:18.184Z,7.45
2022-11-17T11:55:48.994Z,4.20
2022-11-17T11:58:25.412Z,10.65
2022-11-17T12:01:21.956Z,2.78
2022-11-17T12:04:21.038Z,2.88
2022-11-17T12:07:16.949Z,3.45
2022-11-17T12:10:04.714Z,5.05
2022-11-17T12:12:37.214Z,5.72
2022-11-17T12:15:19.689Z,4.75
2022-11-17T12:18:05.427Z,8.65
2022-11-17T12:20:38.584Z,3.80
2022-11-17T12:23:56.403Z,4.53
2022-11-17T12:26:30.530Z,5.05
2022-11-17T12:29:19.527Z,3.63
2022-11-17T12:31:50.652Z,6.30
2022-11-17T12:34:20.451Z,2.97
2022-11-17T12:37:19.278Z,3.15
2022-11-17T12:39:53.857Z,4.82
2022-11-17T12:42:21.241Z,2.25
2022-11-17T12:44:57.693Z,1.75
2022-11-17T12:47:36.646Z,3.38
2022-11-17T12:50:39.769Z,1.85
2022-11-17T12:53:49.494Z,2.42
2022-11-17T12:56:48.635Z,2.35
2022-11-17T12:59:36.775Z,2.00
2022-11-17T13:02:52.627Z,5.67
2022-11-17T13:05:23.806Z,3.22
2022-11-17T13:08:22.682Z,1.48
2022-11-17T13:10:50.683Z,1.95
2022-11-17T13:13:23.984Z,4.07
2022-11-17T13:16:00.140Z,3.00
2022-11-17T13:18:40.306Z,3.47
2022-11-17T13:21:29.094Z,1.65
2022-11-17T13:23:59.700Z,2.38
2022-11-17T13:26:37.313Z,2.40
2022-11-17T13:29:18.417Z,3.63
2022-11-17T13:31:46.101Z,3.20
2022-11-17T13:34:17.887Z,2.17
2022-11-17T13:37:00.171Z,9.25
2022-11-17T13:39:28.294Z,3.60
2022-11-17T13:42:01.840Z,2.10
2022-11-17T13:44:30.199Z,4.30
2022-11-17T13:47:20.457Z,2.33
2022-11-17T13:49:48.276Z,3.03
2022-11-17T13:52:40.423Z,7.05
2022-11-17T13:55:19.972Z,4.05
2022-11-17T13:58:27.353Z,8.30
2022-11-17T14:00:57.768Z,7.10
2022-11-17T14:03:40.568Z,4.93
2022-11-17T14:06:13.023Z,8.65
2022-11-17T14:08:42.573Z,1.42
2022-11-17T14:11:09.644Z,2.72
2022-11-17T14:14:11.291Z,3.70
2022-11-17T14:16:40.816Z,7.40
2022-11-17T14:19:17.445Z,4.40
2022-11-17T14:22:26.203Z,4.00
2022-11-17T14:24:58.048Z,3.65
2022-11-17T14:27:38.039Z,3.85
2022-11-17T14:30:06.197Z,5.95
2022-11-17T14:32:34.407Z,4.18
2022-11-17T14:35:01.573Z,10.52
2022-11-17T14:37:31.633Z,4.30
2022-11-17T14:40:00.149Z,2.60
2022-11-17T14:42:28.354Z,3.97
2022-11-17T14:44:57.480Z,6.13
2022-11-17T14:47:24.708Z,6.20
2022-11-17T14:49:51.976Z,5.45
2022-11-17T14:52:19.091Z,8.45
2022-11-17T14:54:46.195Z,5.25
2022-11-17T14:57:13.428Z,15.90
2022-11-17T14:59:40.666Z,7.32
2022-11-17T15:02:10.843Z,8.50
2022-11-17T15:04:50.454Z,6.70
2022-11-17T15:07:18.664Z,23.52
2022-11-17T15:09:45.936Z,13.98
2022-11-17T15:12:13.242Z,12.02
2022-11-17T15:14:40.436Z,7.82
2022-11-17T15:17:13.877Z,10.02
2022-11-17T15:19:41.893Z,9.10
2022-11-17T15:22:09.035Z,9.32
2022-11-17T15:24:36.202Z,6.28
2022-11-17T15:27:03.498Z,7.90
2022-11-17T15:29:30.604Z,8.95
2022-11-17T15:31:57.718Z,6.25
2022-11-17T15:34:24.857Z,10.45
2022-11-17T15:36:52.132Z,19.35
2022-11-17T15:39:20.234Z,12.65
2022-11-17T15:41:49.072Z,12.57
2022-11-17T15:44:18.171Z,13.82
2022-11-17T15:49:15.714Z,14.90
2022-11-17T15:51:43.460Z,21.40
2022-11-17T15:54:15.080Z,13.43
2022-11-17T15:56:47.566Z,15.65
2022-11-17T15:59:15.135Z,17.92
2022-11-17T16:01:43.278Z,15.50
2022-11-17T16:04:14.976Z,16.83
2022-11-17T16:06:44.491Z,13.85
2022-11-17T16:09:12.111Z,13.93
2022-11-17T16:11:40.537Z,12.60
2022-11-17T16:14:08.428Z,13.63
2022-11-17T16:16:38.529Z,10.05
2022-11-17T16:19:06.615Z,13.95
2022-11-17T16:21:33.848Z,20.15
2022-11-17T16:24:01.538Z,18.35
2022-11-17T16:26:29.548Z,17.60
2022-11-17T16:29:03.487Z,14.23
2022-11-17T16:31:38.055Z,13.88
2022-11-17T16:34:15.031Z,11.45
2022-11-17T16:36:43.863Z,12.82
2022-11-17T16:39:16.352Z,10.98
2022-11-17T16:41:45.089Z,9.73
2022-11-17T16:44:15.465Z,9.95
2022-11-17T16:46:45.593Z,12.68
2022-11-17T16:49:16.157Z,10.55
2022-11-17T16:51:49.849Z,16.98
2022-11-17T16:54:18.056Z,30.88
2022-11-17T16:56:45.703Z,21.92
2022-11-17T16:59:13.347Z,26.75
2022-11-17T17:01:40.650Z,25.98
2022-11-17T17:04:09.645Z,20.42
2022-11-17T17:06:43.419Z,19.10
2022-11-17T17:09:12.770Z,22.92
2022-11-17T17:14:11.589Z,14.88
2022-11-17T17:16:39.754Z,16.00
2022-11-17T17:19:09.532Z,15.50
2022-11-17T17:21:40.131Z,15.20
2022-11-17T17:24:08.694Z,19.25
2022-11-17T17:26:36.723Z,15.90
2022-11-17T17:29:05.346Z,12.45
2022-11-17T17:31:36.662Z,13.82
2022-11-17T17:34:05.867Z,15.88
2022-11-17T17:36:34.696Z,15.55
2022-11-17T17:39:02.915Z,20.65
2022-11-17T17:41:33.588Z,14.60
2022-11-17T17:44:06.538Z,20.17
2022-11-17T17:46:37.309Z,11.32
2022-11-17T17:49:05.526Z,9.15
2022-11-17T17:51:39.362Z,15.18
2022-11-17T17:54:09.626Z,8.88
2022-11-17T17:56:36.794Z,10.98
2022-11-17T17:59:03.969Z,11.32
2022-11-17T18:01:36.779Z,10.25
2022-11-17T18:04:04.510Z,10.02
2022-11-17T18:06:39.845Z,10.38
2022-11-17T18:09:13.851Z,11.23
2022-11-17T18:11:45.146Z,14.50
2022-11-17T18:14:12.754Z,11.00
2022-11-17T18:16:40.319Z,15.40
2022-11-17T18:19:09.156Z,13.52
2022-11-17T18:21:36.450Z,18.30
2022-11-17T18:24:04.207Z,16.00
2022-11-17T18:26:35.519Z,12.52
2022-11-17T18:29:06.842Z,16.58
2022-11-17T18:31:37.010Z,20.98
2022-11-17T18:34:14.912Z,28.05
2022-11-17T18:36:42.218Z,48.67
2022-11-17T18:39:09.472Z,56.70
2022-11-17T18:41:37.166Z,50.90
2022-11-17T18:44:04.638Z,45.35
2022-11-17T18:46:32.559Z,48.22
2022-11-17T18:49:00.336Z,48.00
2022-11-17T18:51:30.614Z,42.53
2022-11-17T18:53:59.634Z,34.42
2022-11-17T18:56:35.764Z,29.95
2022-11-17T18:59:10.792Z,26.15
2022-11-17T19:01:40.559Z,23.92
2022-11-17T19:04:08.331Z,23.23
2022-11-17T19:06:35.662Z,24.55
2022-11-17T19:09:03.402Z,21.45
2022-11-17T19:11:32.275Z,28.02
2022-11-17T19:14:06.373Z,19.75
2022-11-17T19:16:39.597Z,30.95
2022-11-17T19:19:12.306Z,27.40
2022-11-17T19:21:39.416Z,26.02
2022-11-17T19:24:07.320Z,34.10
2022-11-17T19:26:35.597Z,29.40
2022-11-17T19:29:15.664Z,25.40
2022-11-17T19:31:45.651Z,26.10
2022-11-17T19:34:14.105Z,14.90
2022-11-17T19:36:41.594Z,21.80
2022-11-17T19:39:10.893Z,20.13
2022-11-17T19:41:39.313Z,26.48
2022-11-17T19:44:08.475Z,33.00
2022-11-17T19:46:36.600Z,25.13
2022-11-17T19:49:05.475Z,26.80
2022-11-17T19:51:36.297Z,33.58
2022-11-17T19:54:08.922Z,39.25
2022-11-17T19:56:37.691Z,40.05
2022-11-17T19:59:05.108Z,41.30
2022-11-17T20:01:33.485Z,28.17
2022-11-17T20:04:01.311Z,29.85
2022-11-17T20:06:37.059Z,31.50
2022-11-17T20:09:10.738Z,36.83
2022-11-17T20:11:38.105Z,38.38
2022-11-17T20:14:05.565Z,42.30
2022-11-17T20:16:33.244Z,36.50
2022-11-17T20:19:01.880Z,36.10
2022-11-17T20:21:30.505Z,41.80
2022-11-17T20:23:58.688Z,46.33
2022-11-17T20:26:32.366Z,48.13
2022-11-17T20:29:00.487Z,49.50
2022-11-17T20:31:31.657Z,48.03
2022-11-17T20:34:00.206Z,40.90
2022-11-17T20:36:29.423Z,33.13
2022-11-17T20:39:02.698Z,28.45
2022-11-17T20:41:30.314Z,37.40
2022-11-17T20:44:00.049Z,35.47
2022-11-17T20:46:27.270Z,37.75
2022-11-17T20:48:54.576Z,39.78
2022-11-17T20:51:24.323Z,35.60
2022-11-17T20:53:51.810Z,29.83
2022-11-17T20:56:19.428Z,33.38
2022-11-17T20:58:46.936Z,33.55
2022-11-17T21:01:17.438Z,31.55
2022-11-17T21:03:45.573Z,28.02
2022-11-17T21:06:13.713Z,32.70
2022-11-17T21:08:42.857Z,29.08
2022-11-17T21:11:34.326Z,35.78
2022-11-17T21:14:03.236Z,35.85
2022-11-17T21:16:30.399Z,42.45
2022-11-17T21:18:57.677Z,46.30
2022-11-17T21:21:24.845Z,44.17
2022-11-17T21:23:53.832Z,48.33
2022-11-17T21:26:22.267Z,40.67
2022-11-17T21:28:49.991Z,30.00
2022-11-17T21:31:26.007Z,31.92
2022-11-17T21:33:54.823Z,33.50
2022-11-17T21:36:24.186Z,31.55
2022-11-17T21:38:52.053Z,30.13
2022-11-17T21:41:22.947Z,39.40
2022-11-17T21:43:52.188Z,29.73
2022-11-17T21:46:22.324Z,33.47
2022-11-17T21:48:50.991Z,37.45
2022-11-17T21:51:28.388Z,43.57
2022-11-17T21:53:57.875Z,30.60
2022-11-17T21:56:26.872Z,41.38
2022-11-17T21:59:09.010Z,32.20
2022-11-17T22:01:36.917Z,29.40
2022-11-17T22:04:04.378Z,28.80
2022-11-17T22:06:31.828Z,30.48
2022-11-17T22:09:00.040Z,27.98
2022-11-17T22:11:36.677Z,33.30
2022-11-17T22:14:15.867Z,33.40
2022-11-17T22:16:45.234Z,37.95
2022-11-17T22:19:15.206Z,44.10
2022-11-17T22:21:43.836Z,22.58
2022-11-17T22:24:12.233Z,19.58
2022-11-17T22:26:41.382Z,21.33
2022-11-17T22:29:21.609Z,24.15
2022-11-17T22:31:49.912Z,25.27
2022-11-17T22:34:18.253Z,21.58
2022-11-17T22:36:45.432Z,16.10
2022-11-17T22:39:12.834Z,23.35
2022-11-17T22:41:40.000Z,17.55
2022-11-17T22:44:07.156Z,18.65
2022-11-17T22:46:35.598Z,12.57
2022-11-17T22:49:02.748Z,13.10
2022-11-17T22:51:48.293Z,17.17
2022-11-17T22:54:15.475Z,19.83
2022-11-17T22:56:42.632Z,12.00
2022-11-17T22:59:09.850Z,16.63
2022-11-17T23:01:37.443Z,18.65
2022-11-17T23:04:05.530Z,14.75
2022-11-17T23:06:32.745Z,18.90
2022-11-17T23:09:00.138Z,19.58
2022-11-17T23:11:43.144Z,22.30
2022-11-17T23:14:13.534Z,22.73
2022-11-17T23:16:41.356Z,20.35
2022-11-17T23:19:12.983Z,26.13
2022-11-17T23:21:40.937Z,28.60
2022-11-17T23:24:13.840Z,30.17
2022-11-17T23:26:42.107Z,43.20
2022-11-17T23:29:09.529Z,30.20
2022-11-17T23:31:36.837Z,20.70
2022-11-17T23:34:04.054Z,15.07
2022-11-17T23:36:31.192Z,23.33
2022-11-17T23:38:58.355Z,34.60
2022-11-17T23:41:25.568Z,26.88
2022-11-17T23:43:53.935Z,27.33
2022-11-17T23:46:24.885Z,39.33
2022-11-17T23:48:53.330Z,32.65
2022-11-17T23:51:23.219Z,29.55
2022-11-17T23:53:50.365Z,37.55
2022-11-17T23:56:19.973Z,38.45
2022-11-17T23:58:47.865Z,44.97
